EZY86LX LSGG-EGKK
Flight info
| Callsign | EZY86LX |
|---|---|
| Flight time | N/A |
| Altitude | 36000 |
| Route | DIPIR T37 IBABA DCT TUTAX DCT OBURO DCT OKRIX DCT CLM DCT KOPOR DCT KESAX DCT KUNAV |
| Aircraft | A320/M-SDE3FGHIRWY/LB1 |
Departure
| Time | N/A |
|---|---|
| Airport | Geneva International Airport (LSGG) |
Arrival
| Time | 2026-05-03 20:43 |
|---|---|
| Airport | London Gatwick Airport (EGKK) |
| Time | Latitude | Longitude | Altitude | Speed | Heading |
|---|---|---|---|---|---|
| 2026-05-03 20:15 | 49.05393 | 2.83049 | 35947 ft | 460 kts | 323° |
| 2026-05-03 20:15 | 49.10992 | 2.78116 | 35943 ft | 461 kts | 323° |
| 2026-05-03 20:16 | 49.16610 | 2.73176 | 35937 ft | 461 kts | 323° |
| 2026-05-03 20:16 | 49.21245 | 2.69085 | 35940 ft | 462 kts | 323° |
| 2026-05-03 20:17 | 49.26803 | 2.64151 | 35943 ft | 462 kts | 323° |
| 2026-05-03 20:17 | 49.32368 | 2.59190 | 35929 ft | 464 kts | 323° |
| 2026-05-03 20:18 | 49.37950 | 2.54196 | 35928 ft | 465 kts | 323° |
| 2026-05-03 20:18 | 49.43533 | 2.49200 | 35927 ft | 465 kts | 323° |
| 2026-05-03 20:19 | 49.49133 | 2.44184 | 35931 ft | 466 kts | 323° |
| 2026-05-03 20:19 | 49.54320 | 2.38332 | 35941 ft | 457 kts | 313° |
| 2026-05-03 20:20 | 49.59142 | 2.31933 | 35931 ft | 457 kts | 313° |
| 2026-05-03 20:20 | 49.63959 | 2.25522 | 35941 ft | 458 kts | 313° |
| 2026-05-03 20:21 | 49.68756 | 2.19131 | 35943 ft | 459 kts | 313° |
| 2026-05-03 20:21 | 49.73586 | 2.12670 | 35942 ft | 460 kts | 313° |
| 2026-05-03 20:22 | 49.78424 | 2.06178 | 35931 ft | 461 kts | 313° |
| 2026-05-03 20:22 | 49.83274 | 1.99669 | 35927 ft | 462 kts | 313° |
| 2026-05-03 20:23 | 49.88122 | 1.93145 | 35930 ft | 462 kts | 313° |
| 2026-05-03 20:23 | 49.92969 | 1.86591 | 35934 ft | 462 kts | 313° |
| 2026-05-03 20:24 | 49.97814 | 1.80019 | 35960 ft | 463 kts | 313° |
| 2026-05-03 20:24 | 50.02664 | 1.73427 | 35945 ft | 464 kts | 313° |
| 2026-05-03 20:25 | 50.07514 | 1.66817 | 35938 ft | 464 kts | 313° |
| 2026-05-03 20:25 | 50.12499 | 1.60049 | 35693 ft | 465 kts | 314° |
| 2026-05-03 20:25 | 50.14913 | 1.56786 | 35443 ft | 465 kts | 313° |
| 2026-05-03 20:26 | 50.17392 | 1.53430 | 35202 ft | 465 kts | 313° |
| 2026-05-03 20:26 | 50.19862 | 1.50075 | 34874 ft | 465 kts | 313° |
| 2026-05-03 20:26 | 50.22317 | 1.46725 | 33921 ft | 472 kts | 312° |
| 2026-05-03 20:26 | 50.24800 | 1.43328 | 32820 ft | 477 kts | 312° |
| 2026-05-03 20:27 | 50.27305 | 1.39894 | 31790 ft | 481 kts | 313° |
| 2026-05-03 20:27 | 50.30049 | 1.36131 | 30656 ft | 485 kts | 313° |
| 2026-05-03 20:27 | 50.32418 | 1.32880 | 29741 ft | 488 kts | 313° |
| 2026-05-03 20:27 | 50.34961 | 1.29395 | 28678 ft | 487 kts | 314° |
| 2026-05-03 20:28 | 50.37514 | 1.25895 | 27514 ft | 489 kts | 314° |
| 2026-05-03 20:28 | 50.40089 | 1.22363 | 26350 ft | 490 kts | 314° |
| 2026-05-03 20:28 | 50.42638 | 1.18854 | 25202 ft | 491 kts | 314° |
| 2026-05-03 20:28 | 50.45187 | 1.15331 | 24278 ft | 486 kts | 314° |
| 2026-05-03 20:29 | 50.47713 | 1.11829 | 23344 ft | 482 kts | 314° |
| 2026-05-03 20:29 | 50.50210 | 1.08361 | 22397 ft | 477 kts | 315° |
| 2026-05-03 20:29 | 50.52607 | 1.04721 | 21506 ft | 467 kts | 309° |
| 2026-05-03 20:29 | 50.54840 | 1.00972 | 20638 ft | 462 kts | 309° |
| 2026-05-03 20:30 | 50.57019 | 0.97300 | 19825 ft | 456 kts | 309° |
| 2026-05-03 20:30 | 50.59167 | 0.93670 | 19040 ft | 451 kts | 309° |
| 2026-05-03 20:30 | 50.61296 | 0.90072 | 18294 ft | 447 kts | 310° |
| 2026-05-03 20:30 | 50.63430 | 0.86455 | 17442 ft | 442 kts | 310° |
| 2026-05-03 20:31 | 50.65566 | 0.82827 | 16664 ft | 437 kts | 310° |
| 2026-05-03 20:31 | 50.67647 | 0.79272 | 15865 ft | 433 kts | 310° |
| 2026-05-03 20:31 | 50.69615 | 0.75701 | 15145 ft | 428 kts | 308° |
| 2026-05-03 20:31 | 50.71493 | 0.72070 | 14995 ft | 408 kts | 306° |
| 2026-05-03 20:32 | 50.73203 | 0.68653 | 14872 ft | 391 kts | 306° |
| 2026-05-03 20:32 | 50.74838 | 0.65342 | 14751 ft | 376 kts | 305° |
| 2026-05-03 20:32 | 50.75951 | 0.63090 | 14656 ft | 366 kts | 306° |
| 2026-05-03 20:32 | 50.77582 | 0.59813 | 14536 ft | 352 kts | 306° |
| 2026-05-03 20:33 | 50.79256 | 0.56475 | 14394 ft | 338 kts | 306° |
| 2026-05-03 20:33 | 50.80660 | 0.53697 | 14273 ft | 328 kts | 306° |
| 2026-05-03 20:33 | 50.82263 | 0.50540 | 14094 ft | 318 kts | 306° |
| 2026-05-03 20:33 | 50.83571 | 0.47963 | 13828 ft | 315 kts | 306° |
| 2026-05-03 20:34 | 50.84886 | 0.45366 | 13502 ft | 313 kts | 306° |
| 2026-05-03 20:34 | 50.86245 | 0.42684 | 13161 ft | 311 kts | 306° |
| 2026-05-03 20:34 | 50.87617 | 0.39978 | 12810 ft | 309 kts | 306° |
| 2026-05-03 20:34 | 50.88954 | 0.37331 | 12460 ft | 308 kts | 306° |
| 2026-05-03 20:35 | 50.90322 | 0.34617 | 12105 ft | 306 kts | 306° |
| 2026-05-03 20:35 | 50.91193 | 0.32888 | 11870 ft | 304 kts | 306° |
| 2026-05-03 20:35 | 50.92613 | 0.30066 | 11322 ft | 300 kts | 306° |
| 2026-05-03 20:35 | 50.93939 | 0.27428 | 10672 ft | 297 kts | 307° |
| 2026-05-03 20:36 | 50.95201 | 0.24908 | 10058 ft | 294 kts | 307° |
| 2026-05-03 20:36 | 50.96491 | 0.22297 | 9397 ft | 290 kts | 306° |
| 2026-05-03 20:36 | 50.97793 | 0.19638 | 8677 ft | 287 kts | 306° |
| 2026-05-03 20:36 | 50.99147 | 0.16867 | 7933 ft | 284 kts | 306° |
| 2026-05-03 20:37 | 51.00395 | 0.14439 | 7252 ft | 282 kts | 315° |
| 2026-05-03 20:37 | 51.02107 | 0.12601 | 6581 ft | 281 kts | 336° |
| 2026-05-03 20:37 | 51.03893 | 0.11890 | 5946 ft | 280 kts | 355° |
| 2026-05-03 20:37 | 51.05816 | 0.11972 | 5258 ft | 278 kts | 3° |
| 2026-05-03 20:38 | 51.07739 | 0.12156 | 4575 ft | 275 kts | 3° |
| 2026-05-03 20:38 | 51.09658 | 0.12341 | 3954 ft | 269 kts | 2° |
| 2026-05-03 20:38 | 51.11531 | 0.12522 | 3313 ft | 272 kts | 2° |
| 2026-05-03 20:38 | 51.13393 | 0.12397 | 3128 ft | 264 kts | 347° |
| 2026-05-03 20:39 | 51.15084 | 0.11353 | 3093 ft | 261 kts | 327° |
| 2026-05-03 20:39 | 51.16468 | 0.09505 | 3093 ft | 260 kts | 309° |
| 2026-05-03 20:39 | 51.17415 | 0.07007 | 3085 ft | 254 kts | 290° |
| 2026-05-03 20:39 | 51.17740 | 0.05118 | 2985 ft | 244 kts | 277° |
| 2026-05-03 20:40 | 51.17744 | 0.02497 | 2730 ft | 226 kts | 259° |
| 2026-05-03 20:40 | 51.17418 | 0.00059 | 2437 ft | 211 kts | 257° |
| 2026-05-03 20:40 | 51.17118 | -0.02149 | 2130 ft | 201 kts | 257° |
| 2026-05-03 20:40 | 51.16828 | -0.04288 | 1875 ft | 191 kts | 257° |
| 2026-05-03 20:41 | 51.16552 | -0.06319 | 1640 ft | 174 kts | 257° |
| 2026-05-03 20:41 | 51.16309 | -0.08102 | 1391 ft | 155 kts | 257° |
| 2026-05-03 20:41 | 51.16090 | -0.09713 | 1175 ft | 142 kts | 257° |
| 2026-05-03 20:41 | 51.15886 | -0.11202 | 991 ft | 138 kts | 256° |
| 2026-05-03 20:42 | 51.15681 | -0.12701 | 805 ft | 136 kts | 257° |
| 2026-05-03 20:42 | 51.15475 | -0.14207 | 629 ft | 136 kts | 256° |
| 2026-05-03 20:42 | 51.15275 | -0.15664 | 429 ft | 135 kts | 256° |
| 2026-05-03 20:42 | 51.15117 | -0.16839 | 302 ft | 134 kts | 256° |
| 2026-05-03 20:43 | 51.14957 | -0.18012 | 211 ft | 126 kts | 256° |
| 2026-05-03 20:43 | 51.14796 | -0.19174 | 213 ft | 44 kts | 257° |
| 2026-05-03 20:43 | 51.14755 | -0.19583 | 215 ft | 35 kts | 276° |
| 2026-05-03 20:43 | 51.14795 | -0.19899 | 207 ft | 23 kts | 282° |
| 2026-05-03 20:44 | 51.14847 | -0.20045 | 209 ft | 12 kts | 13° |
| 2026-05-03 20:44 | 51.14875 | -0.19929 | 208 ft | 15 kts | 78° |
| 2026-05-03 20:44 | 51.14909 | -0.19661 | 207 ft | 30 kts | 76° |
| 2026-05-03 20:44 | 51.14960 | -0.19305 | 210 ft | 33 kts | 78° |
| 2026-05-03 20:45 | 51.15011 | -0.18945 | 208 ft | 34 kts | 78° |
| 2026-05-03 20:45 | 51.15062 | -0.18569 | 209 ft | 35 kts | 78° |
| 2026-05-03 20:45 | 51.15103 | -0.18265 | 214 ft | 20 kts | 76° |
| 2026-05-03 20:45 | 51.15197 | -0.18213 | 205 ft | 16 kts | 351° |
| 2026-05-03 20:46 | 51.15352 | -0.18268 | 207 ft | 26 kts | 347° |
| 2026-05-03 20:46 | 51.15530 | -0.18329 | 209 ft | 21 kts | 348° |
| 2026-05-03 20:46 | 51.15642 | -0.18337 | 208 ft | 12 kts | 44° |
| 2026-05-03 20:46 | 51.15672 | -0.18161 | 205 ft | 21 kts | 77° |
| 2026-05-03 20:47 | 51.15702 | -0.17942 | 205 ft | 20 kts | 78° |
| 2026-05-03 20:47 | 51.15731 | -0.17731 | 205 ft | 19 kts | 77° |
| 2026-05-03 20:47 | 51.15758 | -0.17534 | 205 ft | 14 kts | 77° |
| 2026-05-03 20:47 | 51.15773 | -0.17431 | 205 ft | 6 kts | 77° |
| 2026-05-03 20:48 | 51.15800 | -0.17416 | 205 ft | 4 kts | 349° |
| 2026-05-03 20:48 | 51.15825 | -0.17424 | 205 ft | 3 kts | 348° |
| 2026-05-03 20:48 | 51.15845 | -0.17432 | 210 ft | 3 kts | 347° |
| 2026-05-03 20:48 | 51.15854 | -0.17435 | 212 ft | 0 kts | 347° |